createdAt,value
2018-04-24T00:00:28.177Z,7.83
2018-04-24T00:03:31.478Z,7.73
2018-04-24T00:06:34.809Z,7.90
2018-04-24T00:09:38.108Z,7.77
2018-04-24T00:12:41.425Z,7.40
2018-04-24T00:15:45.498Z,7.73
2018-04-24T00:18:48.829Z,8.20
2018-04-24T00:21:52.129Z,7.27
2018-04-24T00:24:55.441Z,8.10
2018-04-24T00:27:59.529Z,8.03
2018-04-24T00:31:02.829Z,7.93
2018-04-24T00:34:06.145Z,7.83
2018-04-24T00:37:10.212Z,8.10
2018-04-24T00:40:13.529Z,7.77
2018-04-24T00:43:16.841Z,6.93
2018-04-24T00:46:20.139Z,7.17
2018-04-24T00:49:23.468Z,7.03
2018-04-24T00:52:26.764Z,6.63
2018-04-24T00:55:30.086Z,6.43
2018-04-24T00:58:33.388Z,6.37
2018-04-24T01:01:36.720Z,7.13
2018-04-24T01:04:40.017Z,6.50
2018-04-24T01:07:43.348Z,7.20
2018-04-24T01:10:46.649Z,6.73
2018-04-24T01:13:49.969Z,6.63
2018-04-24T01:16:53.318Z,6.50
2018-04-24T01:19:57.417Z,6.37
2018-04-24T01:23:00.737Z,6.70
2018-04-24T01:26:04.041Z,7.20
2018-04-24T01:29:07.357Z,6.50
2018-04-24T01:32:10.658Z,7.93
2018-04-24T01:35:13.977Z,8.00
2018-04-24T01:38:17.281Z,8.63
2018-04-24T01:41:20.605Z,9.20
2018-04-24T01:44:24.684Z,8.80
2018-04-24T01:47:28.021Z,8.87
2018-04-24T01:50:32.091Z,9.73
2018-04-24T01:53:35.413Z,9.80
2018-04-24T01:56:38.737Z,9.43
2018-04-24T01:59:42.829Z,10.03
2018-04-24T02:02:46.128Z,9.30
2018-04-24T02:05:49.446Z,9.80
2018-04-24T02:08:52.745Z,9.53
2018-04-24T02:11:56.062Z,9.83
2018-04-24T02:14:59.387Z,9.07
2018-04-24T02:18:02.698Z,9.30
2018-04-24T02:21:06.017Z,9.50
2018-04-24T02:24:10.090Z,10.17
2018-04-24T02:27:13.408Z,9.67
2018-04-24T02:30:16.742Z,9.47
2018-04-24T02:33:20.050Z,9.23
2018-04-24T02:36:23.386Z,9.13
2018-04-24T02:39:26.711Z,9.97
2018-04-24T02:42:30.815Z,10.23
2018-04-24T02:45:34.129Z,11.13
2018-04-24T02:48:38.238Z,10.83
2018-04-24T02:51:42.314Z,10.73
2018-04-24T02:54:45.645Z,10.87
2018-04-24T02:57:49.717Z,10.93
2018-04-24T03:00:53.045Z,11.37
2018-04-24T03:03:56.373Z,11.60
2018-04-24T03:06:59.698Z,10.93
2018-04-24T03:10:03.009Z,12.30
2018-04-24T03:13:06.341Z,13.43
2018-04-24T03:16:10.437Z,12.00
2018-04-24T03:19:13.742Z,11.40
2018-04-24T03:22:17.070Z,12.17
2018-04-24T03:25:20.381Z,12.13
2018-04-24T03:28:23.704Z,11.83
2018-04-24T03:31:27.014Z,11.03
2018-04-24T03:34:30.333Z,12.47
2018-04-24T03:37:34.412Z,11.70
2018-04-24T03:40:37.744Z,11.20
2018-04-24T03:43:41.057Z,10.10
2018-04-24T03:46:45.153Z,10.97
2018-04-24T03:49:48.465Z,11.97
2018-04-24T03:52:52.557Z,11.40
2018-04-24T03:55:55.881Z,11.50
2018-04-24T03:58:59.973Z,11.70
2018-04-24T04:02:03.289Z,10.60
2018-04-24T04:05:07.397Z,10.83
2018-04-24T04:08:11.501Z,10.73
2018-04-24T04:11:14.832Z,12.57
2018-04-24T04:14:18.165Z,10.53
2018-04-24T04:17:39.206Z,11.00
2018-04-24T04:21:00.190Z,11.50
2018-04-24T04:24:21.165Z,12.47
2018-04-24T04:27:24.477Z,13.10
2018-04-24T04:30:28.705Z,12.63
2018-04-24T04:33:32.018Z,11.60
2018-04-24T04:36:35.366Z,13.50
2018-04-24T04:39:38.674Z,13.90
2018-04-24T04:42:42.000Z,12.53
2018-04-24T04:45:45.314Z,13.63
2018-04-24T04:48:48.648Z,12.07
2018-04-24T04:51:51.962Z,13.97
2018-04-24T04:54:55.284Z,12.33
2018-04-24T04:57:58.609Z,13.30
2018-04-24T05:01:01.931Z,13.50
2018-04-24T05:04:05.261Z,15.63
2018-04-24T05:07:08.573Z,16.63
2018-04-24T05:10:11.908Z,17.23
2018-04-24T05:13:15.989Z,15.30
2018-04-24T05:16:19.330Z,17.13
2018-04-24T05:19:23.405Z,16.70
2018-04-24T05:22:26.746Z,17.37
2018-04-24T05:25:30.814Z,15.17
2018-04-24T05:28:34.133Z,17.70
2018-04-24T05:31:37.461Z,18.40
2018-04-24T05:34:40.773Z,17.80
2018-04-24T05:37:44.112Z,16.27
2018-04-24T05:40:47.425Z,16.97
2018-04-24T05:43:51.577Z,16.33
2018-04-24T05:46:55.054Z,17.13
2018-04-24T05:49:59.136Z,14.60
2018-04-24T05:53:02.532Z,16.97
2018-04-24T05:56:05.799Z,15.87
2018-04-24T05:59:09.125Z,18.57
2018-04-24T06:02:12.441Z,17.13
2018-04-24T06:05:16.535Z,17.77
2018-04-24T06:08:19.892Z,18.07
2018-04-24T06:11:23.940Z,17.40
2018-04-24T06:14:27.244Z,15.43
2018-04-24T06:17:30.560Z,15.47
2018-04-24T06:20:33.880Z,15.40
2018-04-24T06:23:37.181Z,16.03
2018-04-24T06:26:40.501Z,16.83
2018-04-24T06:29:43.796Z,15.57
2018-04-24T06:32:47.117Z,16.43
2018-04-24T06:35:50.438Z,16.57
2018-04-24T06:38:53.744Z,15.47
2018-04-24T06:41:57.830Z,15.47
2018-04-24T06:45:01.161Z,14.20
2018-04-24T06:48:05.251Z,14.00
2018-04-24T06:51:08.563Z,13.03
2018-04-24T06:54:12.662Z,13.73
2018-04-24T06:57:15.961Z,13.77
2018-04-24T07:00:19.281Z,12.27
2018-04-24T07:03:23.361Z,10.07
2018-04-24T07:06:26.760Z,11.57
2018-04-24T07:09:30.037Z,11.63
2018-04-24T07:12:33.344Z,11.33
2018-04-24T07:15:36.672Z,13.37
2018-04-24T07:18:40.757Z,11.10
2018-04-24T07:21:44.089Z,18.87
2018-04-24T07:24:48.189Z,11.63
2018-04-24T07:27:51.493Z,10.37
2018-04-24T07:30:55.592Z,11.13
2018-04-24T07:33:58.902Z,11.73
2018-04-24T07:37:02.993Z,9.80
2018-04-24T07:40:06.298Z,8.40
2018-04-24T07:43:09.626Z,9.37
2018-04-24T07:46:13.703Z,10.77
2018-04-24T07:49:17.025Z,9.50
2018-04-24T07:52:21.114Z,11.57
2018-04-24T07:55:24.416Z,9.63
2018-04-24T07:58:27.739Z,8.30
2018-04-24T08:01:31.842Z,10.87
2018-04-24T08:04:35.916Z,11.13
2018-04-24T08:07:39.261Z,10.67
2018-04-24T08:10:42.576Z,10.53
2018-04-24T08:13:45.909Z,10.87
2018-04-24T08:16:49.224Z,9.53
2018-04-24T08:19:52.556Z,10.70
2018-04-24T08:22:56.672Z,9.60
2018-04-24T08:25:59.977Z,9.93
2018-04-24T08:29:03.284Z,7.50
2018-04-24T08:32:07.372Z,9.63
2018-04-24T08:35:11.452Z,7.80
2018-04-24T08:38:14.760Z,8.60
2018-04-24T08:41:18.090Z,9.00
2018-04-24T08:44:21.416Z,8.87
2018-04-24T08:47:24.716Z,8.73
2018-04-24T08:50:28.049Z,8.50
2018-04-24T08:53:31.353Z,10.00
2018-04-24T08:56:34.678Z,8.30
2018-04-24T08:59:37.990Z,7.60
2018-04-24T09:02:41.314Z,8.47
2018-04-24T09:05:44.636Z,7.13
2018-04-24T09:08:47.932Z,7.00
2018-04-24T09:11:51.253Z,5.90
2018-04-24T09:14:55.340Z,5.77
2018-04-24T09:17:58.701Z,6.93
2018-04-24T09:21:01.993Z,6.57
2018-04-24T09:24:06.097Z,6.20
2018-04-24T09:27:09.464Z,6.10
2018-04-24T09:30:12.725Z,5.23
2018-04-24T09:33:16.041Z,5.57
2018-04-24T09:36:19.365Z,4.43
2018-04-24T09:39:22.704Z,4.70
2018-04-24T09:42:26.011Z,3.67
2018-04-24T09:45:29.335Z,4.60
2018-04-24T09:48:33.413Z,4.30
2018-04-24T09:51:36.753Z,4.30
2018-04-24T09:54:40.827Z,4.00
2018-04-24T09:57:44.156Z,3.63
2018-04-24T10:00:48.246Z,3.40
2018-04-24T10:03:51.560Z,3.87
2018-04-24T10:06:54.885Z,4.03
2018-04-24T10:09:58.953Z,3.93
2018-04-24T10:13:02.328Z,3.70
2018-04-24T10:16:05.621Z,3.30
2018-04-24T10:19:08.946Z,3.00
2018-04-24T10:22:12.254Z,3.20
2018-04-24T10:25:15.573Z,3.40
2018-04-24T10:28:19.645Z,3.70
2018-04-24T10:31:22.965Z,3.70
2018-04-24T10:34:26.291Z,4.10
2018-04-24T10:37:29.666Z,3.30
2018-04-24T10:40:32.921Z,3.13
2018-04-24T10:43:36.230Z,4.37
2018-04-24T10:46:39.545Z,3.23
2018-04-24T10:49:42.853Z,3.13
2018-04-24T10:52:46.169Z,3.40
2018-04-24T10:55:49.488Z,3.20
2018-04-24T10:58:52.820Z,3.00
2018-04-24T11:01:56.152Z,2.77
2018-04-24T11:04:59.474Z,2.90
2018-04-24T11:08:02.786Z,3.53
2018-04-24T11:11:06.110Z,5.07
2018-04-24T11:14:09.438Z,4.17
2018-04-24T11:17:13.529Z,3.50
2018-04-24T11:20:16.836Z,2.70
2018-04-24T11:23:20.163Z,3.43
2018-04-24T11:26:23.490Z,3.83
2018-04-24T11:29:26.829Z,2.63
2018-04-24T11:32:30.917Z,2.50
2018-04-24T11:35:34.249Z,5.07
2018-04-24T11:38:38.340Z,3.07
2018-04-24T11:41:41.663Z,3.07
2018-04-24T11:44:45.757Z,2.80
2018-04-24T11:47:49.073Z,2.90
2018-04-24T11:50:53.168Z,2.87
2018-04-24T11:53:56.497Z,2.77
2018-04-24T11:56:59.851Z,2.80
2018-04-24T12:00:03.153Z,2.57
2018-04-24T12:03:06.584Z,3.07
2018-04-24T12:06:09.963Z,2.37
2018-04-24T12:09:14.078Z,2.60
2018-04-24T12:12:17.409Z,2.30
2018-04-24T12:15:20.746Z,2.50
2018-04-24T12:18:24.085Z,2.10
2018-04-24T12:21:28.174Z,2.90
2018-04-24T12:24:31.521Z,2.80
2018-04-24T12:27:34.843Z,2.03
2018-04-24T12:30:38.186Z,2.70
2018-04-24T12:33:42.273Z,2.37
2018-04-24T12:36:45.579Z,3.17
2018-04-24T12:39:48.898Z,2.47
2018-04-24T12:42:52.980Z,2.37
2018-04-24T12:45:56.304Z,2.57
2018-04-24T12:49:00.421Z,2.43
2018-04-24T12:52:03.750Z,2.20
2018-04-24T12:55:07.089Z,2.10
2018-04-24T12:58:10.391Z,2.10
2018-04-24T13:01:13.713Z,2.87
2018-04-24T13:04:17.789Z,2.33
2018-04-24T13:07:21.114Z,2.70
2018-04-24T13:10:25.183Z,3.00
2018-04-24T13:13:28.509Z,3.30
2018-04-24T13:16:31.813Z,2.83
2018-04-24T13:19:35.137Z,2.83
2018-04-24T13:22:38.452Z,2.17
2018-04-24T13:25:41.867Z,3.23
2018-04-24T13:28:45.903Z,2.87
2018-04-24T13:31:49.209Z,2.87
2018-04-24T13:34:52.534Z,3.17
2018-04-24T13:37:55.843Z,2.60
2018-04-24T13:40:59.169Z,3.20
2018-04-24T13:44:02.514Z,3.57
2018-04-24T13:47:06.591Z,2.53
2018-04-24T13:50:09.917Z,2.90
2018-04-24T13:53:13.243Z,3.90
2018-04-24T13:56:16.548Z,3.10
2018-04-24T13:59:19.865Z,3.40
2018-04-24T14:02:23.196Z,3.40
2018-04-24T14:05:26.520Z,3.40
2018-04-24T14:08:29.829Z,3.23
2018-04-24T14:11:33.165Z,3.33
2018-04-24T14:14:36.464Z,3.60
2018-04-24T14:17:39.785Z,2.90
2018-04-24T14:20:43.861Z,3.50
2018-04-24T14:23:47.184Z,2.93
2018-04-24T14:26:50.514Z,3.73
2018-04-24T14:29:53.837Z,2.60
2018-04-24T14:32:57.145Z,3.57
2018-04-24T14:36:00.464Z,3.50
2018-04-24T14:39:03.793Z,3.33
2018-04-24T14:42:07.885Z,3.67
2018-04-24T14:45:11.210Z,2.83
2018-04-24T14:48:14.522Z,3.37
2018-04-24T14:51:17.858Z,4.03
2018-04-24T14:54:21.236Z,3.07
2018-04-24T14:57:24.568Z,2.40
2018-04-24T15:00:27.872Z,3.13
2018-04-24T15:03:31.969Z,2.60
2018-04-24T15:06:44.126Z,2.03
2018-04-24T15:09:47.464Z,3.43
2018-04-24T15:12:50.797Z,2.37
2018-04-24T15:15:55.052Z,3.03
2018-04-24T15:18:58.412Z,3.03
2018-04-24T15:22:02.526Z,3.03
2018-04-24T15:25:06.625Z,3.50
2018-04-24T15:28:09.962Z,3.07
2018-04-24T15:31:13.391Z,2.70
2018-04-24T15:34:16.646Z,2.10
2018-04-24T15:37:19.953Z,2.83
2018-04-24T15:40:23.445Z,3.27
2018-04-24T15:43:26.761Z,3.03
2018-04-24T15:46:30.086Z,2.50
2018-04-24T15:49:33.413Z,3.90
2018-04-24T15:52:37.489Z,3.37
2018-04-24T15:55:40.817Z,4.33
2018-04-24T15:58:44.120Z,4.20
2018-04-24T16:01:48.336Z,4.53
2018-04-24T16:04:52.415Z,4.87
2018-04-24T16:07:55.985Z,3.87
2018-04-24T16:10:59.398Z,4.43
2018-04-24T16:14:02.709Z,4.17
2018-04-24T16:17:06.039Z,4.50
2018-04-24T16:20:09.353Z,4.47
2018-04-24T16:23:13.445Z,5.03
2018-04-24T16:26:16.776Z,4.33
2018-04-24T16:29:20.110Z,4.97
2018-04-24T16:32:24.045Z,4.70
2018-04-24T16:35:27.382Z,5.17
2018-04-24T16:38:31.417Z,5.50
2018-04-24T16:41:34.729Z,4.77
2018-04-24T16:44:38.058Z,4.20
2018-04-24T16:47:41.368Z,4.03
2018-04-24T16:50:45.462Z,4.00
2018-04-24T16:53:48.781Z,4.00
2018-04-24T16:56:52.869Z,4.60
2018-04-24T16:59:56.211Z,4.63
2018-04-24T17:03:00.285Z,4.23
2018-04-24T17:06:03.673Z,3.70
2018-04-24T17:09:07.722Z,3.40
2018-04-24T17:12:11.805Z,2.87
2018-04-24T17:15:15.105Z,3.00
2018-04-24T17:18:18.433Z,3.77
2018-04-24T17:21:21.764Z,3.73
2018-04-24T17:24:25.082Z,3.20
2018-04-24T17:27:28.405Z,3.13
2018-04-24T17:30:32.485Z,3.33
2018-04-24T17:33:35.814Z,3.83
2018-04-24T17:36:39.906Z,3.83
2018-04-24T17:39:43.233Z,3.17
2018-04-24T17:42:47.369Z,3.47
2018-04-24T17:45:51.652Z,3.60
2018-04-24T17:48:55.247Z,3.33
2018-04-24T17:51:58.593Z,3.20
2018-04-24T17:55:01.921Z,3.33
2018-04-24T17:58:05.278Z,3.53
2018-04-24T18:01:08.598Z,4.27
2018-04-24T18:04:11.941Z,3.80
2018-04-24T18:07:15.244Z,3.67
2018-04-24T18:10:18.668Z,4.00
2018-04-24T18:13:22.011Z,3.20
2018-04-24T18:16:25.604Z,3.60
2018-04-24T18:19:28.954Z,3.87
2018-04-24T18:22:33.038Z,3.67
2018-04-24T18:25:36.337Z,3.60
2018-04-24T18:28:39.658Z,4.20
2018-04-24T18:31:43.232Z,3.83
2018-04-24T18:34:46.628Z,3.47
2018-04-24T18:37:49.953Z,3.97
2018-04-24T18:40:53.282Z,4.27
2018-04-24T18:43:56.742Z,3.43
2018-04-24T18:47:00.050Z,3.97
2018-04-24T18:50:04.411Z,4.30
2018-04-24T18:53:07.754Z,6.47
2018-04-24T18:56:11.862Z,4.50
2018-04-24T18:59:15.251Z,4.60
2018-04-24T19:02:18.534Z,3.90
2018-04-24T19:05:21.853Z,4.27
2018-04-24T19:08:25.163Z,3.73
2018-04-24T19:11:29.258Z,4.33
2018-04-24T19:14:32.561Z,3.70
2018-04-24T19:17:36.097Z,5.10
2018-04-24T19:20:39.649Z,4.03
2018-04-24T19:23:43.875Z,5.50
2018-04-24T19:26:47.256Z,4.60
2018-04-24T19:29:50.829Z,4.93
2018-04-24T19:32:54.212Z,4.50
2018-04-24T19:35:57.525Z,4.70
2018-04-24T19:39:07.352Z,4.60
2018-04-24T19:42:11.421Z,4.33
2018-04-24T19:45:14.750Z,5.07
2018-04-24T19:48:24.442Z,5.00
2018-04-24T19:51:27.749Z,5.07
2018-04-24T19:54:31.073Z,5.37
2018-04-24T19:57:34.398Z,5.07
2018-04-24T20:00:38.487Z,5.53
2018-04-24T20:03:41.795Z,5.53
2018-04-24T20:06:45.880Z,6.60
2018-04-24T20:09:49.415Z,5.13
2018-04-24T20:12:53.549Z,5.67
2018-04-24T20:15:56.881Z,5.23
2018-04-24T20:19:00.185Z,5.27
2018-04-24T20:22:03.522Z,5.50
2018-04-24T20:25:06.816Z,6.63
2018-04-24T20:28:11.151Z,6.17
2018-04-24T20:31:14.498Z,7.00
2018-04-24T20:34:17.837Z,6.77
2018-04-24T20:37:21.905Z,6.10
2018-04-24T20:40:25.225Z,6.10
2018-04-24T20:43:28.546Z,7.90
2018-04-24T20:46:32.648Z,7.83
2018-04-24T20:49:36.728Z,7.23
2018-04-24T20:52:40.029Z,6.73
2018-04-24T20:55:43.369Z,7.20
2018-04-24T20:58:47.439Z,7.30
2018-04-24T21:01:50.751Z,7.43
2018-04-24T21:04:54.062Z,7.90
2018-04-24T21:07:58.149Z,7.03
2018-04-24T21:11:01.449Z,7.57
2018-04-24T21:14:04.920Z,6.83
2018-04-24T21:17:08.269Z,7.33
2018-04-24T21:20:11.579Z,7.87
2018-04-24T21:23:15.693Z,7.90
2018-04-24T21:26:19.769Z,6.83
2018-04-24T21:29:23.092Z,8.20
2018-04-24T21:32:26.388Z,7.40
2018-04-24T21:35:29.706Z,7.13
2018-04-24T21:38:33.013Z,7.13
2018-04-24T21:41:36.329Z,6.67
2018-04-24T21:44:39.641Z,7.00
2018-04-24T21:47:42.961Z,6.90
2018-04-24T21:50:46.290Z,6.10
2018-04-24T21:53:49.613Z,6.30
2018-04-24T21:56:52.933Z,5.97
2018-04-24T21:59:56.253Z,6.20
2018-04-24T22:02:59.573Z,4.33
2018-04-24T22:06:03.662Z,4.07
2018-04-24T22:09:06.963Z,4.57
2018-04-24T22:12:10.281Z,4.73
2018-04-24T22:15:14.349Z,4.90
2018-04-24T22:18:17.681Z,5.47
2018-04-24T22:21:21.745Z,4.87
2018-04-24T22:24:25.068Z,4.60
2018-04-24T22:27:28.381Z,4.70
2018-04-24T22:30:32.441Z,4.40
2018-04-24T22:33:35.761Z,3.63
2018-04-24T22:36:39.081Z,4.20
2018-04-24T22:39:42.398Z,4.37
2018-04-24T22:42:46.481Z,3.40
2018-04-24T22:45:49.801Z,2.93
2018-04-24T22:48:53.860Z,3.53
2018-04-24T22:51:57.171Z,3.40
2018-04-24T22:55:00.464Z,5.07
2018-04-24T22:58:03.781Z,4.53
2018-04-24T23:01:07.077Z,3.93
2018-04-24T23:04:10.389Z,4.30
2018-04-24T23:07:13.706Z,3.50
2018-04-24T23:10:35.632Z,3.10
2018-04-24T23:13:57.288Z,3.70
2018-04-24T23:17:18.269Z,2.60
2018-04-24T23:20:21.651Z,3.40
2018-04-24T23:23:24.940Z,2.97
2018-04-24T23:26:28.247Z,3.50
2018-04-24T23:29:31.558Z,3.77
2018-04-24T23:32:35.638Z,3.13
2018-04-24T23:35:38.952Z,3.40
2018-04-24T23:38:42.301Z,4.20
2018-04-24T23:41:45.596Z,2.90
2018-04-24T23:44:48.885Z,3.47
2018-04-24T23:47:52.197Z,3.93
2018-04-24T23:50:55.494Z,3.53
2018-04-24T23:53:58.810Z,3.13
2018-04-24T23:57:02.117Z,2.73
